Houston, Texas
Current Conditions -  °F | °C
As of 10:15 AM on Thursday 29 Jan 2015 (Local Time) from KMCJ Reporting Station
Scattered Clouds Scattered Clouds  
Wind Chill: 66°   Ceiling: Unl
Heat Index: 66°   Visibility: 8mi
Dew Point: 61°   Wind: 3mph
Humidity: 83%   Direction: 270°W
Pressure: 30.23"   Gusts: NA
Location:  29.76°N, 95.37°W
Report Text: KMCJ 291615Z AUTO 27003KT 8SM SCT020 19/16 A3023 RMK AO1
Loading
Personal Weather Stations






























Interactive Weather Map New forecast layout! Learn more

10-Day Weather Forecast

Advertisements
Track Severe Weather on mobile